BTK284 WIHH-WIPP
Flight info
| Callsign | BTK284 |
|---|---|
| Flight time | 0h 51m |
| Altitude | 34000 |
| Route | GOMEL T10 ENSAV |
| Aircraft | B738/M-SDE2E3FGHIRWXY/LB1 |
Departure
| Time | 2026-04-28 09:38 |
|---|---|
| Airport | Halim Perdanakusuma International Airport (WIHH) |
Arrival
| Time | 2026-04-28 10:29 |
|---|---|
| Airport | Sultan Mahmud Badaruddin II Airport (WIPP) |
| Time | Latitude | Longitude | Altitude | Speed | Heading |
|---|---|---|---|---|---|
| 2026-04-28 09:15 | -6.26617 | 106.88607 | 85 ft | 0 kts | 339° |
| 2026-04-28 09:29 | -6.26628 | 106.88611 | 92 ft | 2 kts | 338° |
| 2026-04-28 09:30 | -6.26643 | 106.88617 | 69 ft | 2 kts | 339° |
| 2026-04-28 09:30 | -6.26658 | 106.88623 | 93 ft | 2 kts | 338° |
| 2026-04-28 09:30 | -6.26673 | 106.88630 | 92 ft | 2 kts | 317° |
| 2026-04-28 09:30 | -6.26682 | 106.88644 | 92 ft | 2 kts | 269° |
| 2026-04-28 09:31 | -6.26681 | 106.88652 | 92 ft | 1 kts | 254° |
| 2026-04-28 09:31 | -6.26681 | 106.88653 | 92 ft | 0 kts | 253° |
| 2026-04-28 09:33 | -6.26683 | 106.88645 | 92 ft | 5 kts | 253° |
| 2026-04-28 09:33 | -6.26712 | 106.88574 | 92 ft | 15 kts | 246° |
| 2026-04-28 09:33 | -6.26758 | 106.88489 | 94 ft | 11 kts | 216° |
| 2026-04-28 09:34 | -6.26766 | 106.88487 | 92 ft | 2 kts | 194° |
| 2026-04-28 09:34 | -6.26810 | 106.88503 | 93 ft | 11 kts | 155° |
| 2026-04-28 09:34 | -6.26830 | 106.88512 | 94 ft | 0 kts | 156° |
| 2026-04-28 09:35 | -6.26852 | 106.88522 | 92 ft | 8 kts | 156° |
| 2026-04-28 09:35 | -6.26935 | 106.88511 | 90 ft | 17 kts | 234° |
| 2026-04-28 09:35 | -6.26996 | 106.88378 | 90 ft | 24 kts | 245° |
| 2026-04-28 09:35 | -6.27077 | 106.88204 | 91 ft | 30 kts | 244° |
| 2026-04-28 09:36 | -6.27163 | 106.88020 | 93 ft | 26 kts | 245° |
| 2026-04-28 09:36 | -6.27196 | 106.87898 | 93 ft | 9 kts | 207° |
| 2026-04-28 09:36 | -6.27206 | 106.87895 | 94 ft | 1 kts | 188° |
| 2026-04-28 09:36 | -6.27207 | 106.87926 | 93 ft | 9 kts | 68° |
| 2026-04-28 09:37 | -6.27180 | 106.87983 | 93 ft | 0 kts | 64° |
| 2026-04-28 09:37 | -6.27179 | 106.87983 | 92 ft | 1 kts | 64° |
| 2026-04-28 09:37 | -6.27159 | 106.88027 | 93 ft | 30 kts | 65° |
| 2026-04-28 09:38 | -6.26943 | 106.88496 | 92 ft | 116 kts | 65° |
| 2026-04-28 09:38 | -6.26509 | 106.89437 | 273 ft | 170 kts | 64° |
| 2026-04-28 09:38 | -6.26006 | 106.90560 | 1153 ft | 176 kts | 65° |
| 2026-04-28 09:38 | -6.25775 | 106.91842 | 1770 ft | 206 kts | 101° |
| 2026-04-28 09:39 | -6.26447 | 106.93198 | 2065 ft | 231 kts | 123° |
| 2026-04-28 09:39 | -6.27341 | 106.94587 | 2616 ft | 242 kts | 122° |
| 2026-04-28 09:39 | -6.28219 | 106.96023 | 3389 ft | 240 kts | 120° |
| 2026-04-28 09:39 | -6.29149 | 106.97446 | 3855 ft | 249 kts | 135° |
| 2026-04-28 09:40 | -6.30664 | 106.98219 | 4670 ft | 248 kts | 166° |
| 2026-04-28 09:40 | -6.32403 | 106.98558 | 5193 ft | 265 kts | 168° |
| 2026-04-28 09:40 | -6.34263 | 106.98910 | 5857 ft | 275 kts | 168° |
| 2026-04-28 09:40 | -6.36155 | 106.99278 | 6678 ft | 279 kts | 167° |
| 2026-04-28 09:41 | -6.38067 | 106.99667 | 7478 ft | 282 kts | 167° |
| 2026-04-28 09:41 | -6.40004 | 107.00073 | 8262 ft | 286 kts | 166° |
| 2026-04-28 09:41 | -6.41963 | 107.00489 | 9053 ft | 290 kts | 166° |
| 2026-04-28 09:41 | -6.43954 | 107.00909 | 9842 ft | 294 kts | 168° |
| 2026-04-28 09:42 | -6.46022 | 107.00877 | 10423 ft | 308 kts | 192° |
| 2026-04-28 09:42 | -6.48005 | 106.99878 | 10593 ft | 336 kts | 221° |
| 2026-04-28 09:42 | -6.49375 | 106.97929 | 11011 ft | 351 kts | 246° |
| 2026-04-28 09:42 | -6.49915 | 106.95527 | 11619 ft | 357 kts | 269° |
| 2026-04-28 09:43 | -6.49533 | 106.93062 | 12295 ft | 360 kts | 291° |
| 2026-04-28 09:43 | -6.48290 | 106.90881 | 12963 ft | 363 kts | 311° |
| 2026-04-28 09:43 | -6.46475 | 106.89110 | 13603 ft | 366 kts | 320° |
| 2026-04-28 09:43 | -6.44518 | 106.87455 | 14177 ft | 369 kts | 321° |
| 2026-04-28 09:44 | -6.42511 | 106.85823 | 14771 ft | 372 kts | 322° |
| 2026-04-28 09:44 | -6.40465 | 106.84209 | 15323 ft | 376 kts | 323° |
| 2026-04-28 09:44 | -6.39087 | 106.83137 | 15680 ft | 379 kts | 323° |
| 2026-04-28 09:44 | -6.36999 | 106.81494 | 16237 ft | 383 kts | 322° |
| 2026-04-28 09:45 | -6.34201 | 106.79239 | 16970 ft | 388 kts | 321° |
| 2026-04-28 09:45 | -6.32814 | 106.78100 | 17332 ft | 390 kts | 321° |
| 2026-04-28 09:45 | -6.30713 | 106.76356 | 17876 ft | 394 kts | 321° |
| 2026-04-28 09:45 | -6.27882 | 106.73984 | 18515 ft | 398 kts | 320° |
| 2026-04-28 09:46 | -6.26475 | 106.72799 | 18824 ft | 400 kts | 320° |
| 2026-04-28 09:46 | -6.24337 | 106.70995 | 19300 ft | 402 kts | 320° |
| 2026-04-28 09:46 | -6.22183 | 106.69177 | 19755 ft | 405 kts | 320° |
| 2026-04-28 09:46 | -6.20017 | 106.67349 | 20206 ft | 408 kts | 320° |
| 2026-04-28 09:47 | -6.17836 | 106.65507 | 20643 ft | 411 kts | 320° |
| 2026-04-28 09:47 | -6.15637 | 106.63651 | 21075 ft | 414 kts | 320° |
| 2026-04-28 09:47 | -6.13423 | 106.61783 | 21506 ft | 417 kts | 320° |
| 2026-04-28 09:47 | -6.11190 | 106.59900 | 21931 ft | 420 kts | 320° |
| 2026-04-28 09:48 | -6.08941 | 106.58003 | 22336 ft | 423 kts | 320° |
| 2026-04-28 09:48 | -6.06678 | 106.56095 | 22726 ft | 427 kts | 320° |
| 2026-04-28 09:48 | -6.04399 | 106.54174 | 23124 ft | 429 kts | 320° |
| 2026-04-28 09:48 | -6.02101 | 106.52237 | 23502 ft | 432 kts | 320° |
| 2026-04-28 09:49 | -5.99799 | 106.50296 | 23856 ft | 433 kts | 320° |
| 2026-04-28 09:49 | -5.97486 | 106.48347 | 24231 ft | 434 kts | 320° |
| 2026-04-28 09:49 | -5.95205 | 106.46425 | 24609 ft | 434 kts | 320° |
| 2026-04-28 09:49 | -5.92858 | 106.44448 | 24970 ft | 436 kts | 320° |
| 2026-04-28 09:50 | -5.90530 | 106.42486 | 25297 ft | 437 kts | 320° |
| 2026-04-28 09:50 | -5.88195 | 106.40520 | 25623 ft | 439 kts | 320° |
| 2026-04-28 09:50 | -5.85879 | 106.38569 | 25946 ft | 441 kts | 320° |
| 2026-04-28 09:50 | -5.83520 | 106.36583 | 26269 ft | 443 kts | 320° |
| 2026-04-28 09:51 | -5.81158 | 106.34594 | 26599 ft | 444 kts | 320° |
| 2026-04-28 09:51 | -5.78784 | 106.32595 | 26908 ft | 446 kts | 320° |
| 2026-04-28 09:51 | -5.76399 | 106.30587 | 27217 ft | 448 kts | 320° |
| 2026-04-28 09:51 | -5.74008 | 106.28575 | 27528 ft | 449 kts | 320° |
| 2026-04-28 09:52 | -5.71606 | 106.26553 | 27825 ft | 451 kts | 321° |
| 2026-04-28 09:52 | -5.69201 | 106.24529 | 28119 ft | 453 kts | 321° |
| 2026-04-28 09:52 | -5.66778 | 106.22490 | 28400 ft | 455 kts | 321° |
| 2026-04-28 09:52 | -5.64351 | 106.20448 | 28685 ft | 456 kts | 321° |
| 2026-04-28 09:53 | -5.61916 | 106.18399 | 28965 ft | 458 kts | 321° |
| 2026-04-28 09:53 | -5.59468 | 106.16340 | 29232 ft | 460 kts | 321° |
| 2026-04-28 09:53 | -5.57016 | 106.14278 | 29497 ft | 461 kts | 321° |
| 2026-04-28 09:53 | -5.54550 | 106.12203 | 29749 ft | 463 kts | 321° |
| 2026-04-28 09:54 | -5.52075 | 106.10122 | 29972 ft | 465 kts | 321° |
| 2026-04-28 09:54 | -5.49592 | 106.08034 | 30188 ft | 466 kts | 321° |
| 2026-04-28 09:54 | -5.47106 | 106.05943 | 30407 ft | 467 kts | 321° |
| 2026-04-28 09:54 | -5.44611 | 106.03846 | 30624 ft | 469 kts | 321° |
| 2026-04-28 09:55 | -5.42107 | 106.01744 | 30834 ft | 470 kts | 321° |
| 2026-04-28 09:55 | -5.39568 | 105.99685 | 31092 ft | 469 kts | 322° |
| 2026-04-28 09:55 | -5.37001 | 105.97658 | 31420 ft | 467 kts | 323° |
| 2026-04-28 09:55 | -5.34479 | 105.95681 | 31753 ft | 465 kts | 323° |
| 2026-04-28 09:56 | -5.31932 | 105.93682 | 32067 ft | 464 kts | 323° |
| 2026-04-28 09:56 | -5.29392 | 105.91679 | 32355 ft | 464 kts | 323° |
| 2026-04-28 09:56 | -5.26864 | 105.89678 | 32667 ft | 463 kts | 323° |
| 2026-04-28 09:56 | -5.24343 | 105.87678 | 32995 ft | 461 kts | 322° |
| 2026-04-28 09:57 | -5.21829 | 105.85683 | 33311 ft | 460 kts | 323° |
| 2026-04-28 09:57 | -5.19317 | 105.83691 | 33615 ft | 460 kts | 323° |
| 2026-04-28 09:57 | -5.16786 | 105.81728 | 33828 ft | 460 kts | 324° |
| 2026-04-28 09:57 | -5.14183 | 105.79838 | 33809 ft | 462 kts | 326° |
| 2026-04-28 09:58 | -5.08932 | 105.76172 | 33808 ft | 458 kts | 326° |
| 2026-04-28 09:58 | -5.03722 | 105.72528 | 33817 ft | 455 kts | 326° |
| 2026-04-28 09:59 | -4.98550 | 105.68870 | 33815 ft | 454 kts | 326° |
| 2026-04-28 09:59 | -4.93401 | 105.65209 | 33814 ft | 454 kts | 326° |
| 2026-04-28 10:00 | -4.88249 | 105.61543 | 33813 ft | 454 kts | 326° |
| 2026-04-28 10:00 | -4.83090 | 105.57873 | 33810 ft | 455 kts | 326° |
| 2026-04-28 10:01 | -4.77915 | 105.54194 | 33815 ft | 457 kts | 326° |
| 2026-04-28 10:01 | -4.72716 | 105.50499 | 33812 ft | 459 kts | 326° |
| 2026-04-28 10:02 | -4.67536 | 105.46818 | 33808 ft | 460 kts | 326° |
| 2026-04-28 10:02 | -4.62311 | 105.43106 | 33810 ft | 461 kts | 326° |
| 2026-04-28 10:03 | -4.57074 | 105.39386 | 33604 ft | 464 kts | 326° |
| 2026-04-28 10:03 | -4.54441 | 105.37516 | 33052 ft | 461 kts | 326° |
| 2026-04-28 10:03 | -4.51836 | 105.35666 | 32563 ft | 457 kts | 326° |
| 2026-04-28 10:04 | -4.49251 | 105.33829 | 32068 ft | 454 kts | 326° |
| 2026-04-28 10:04 | -4.46685 | 105.32007 | 31606 ft | 450 kts | 326° |
| 2026-04-28 10:04 | -4.44135 | 105.30196 | 31125 ft | 447 kts | 326° |
| 2026-04-28 10:04 | -4.41606 | 105.28401 | 30659 ft | 444 kts | 326° |
| 2026-04-28 10:05 | -4.39089 | 105.26614 | 30204 ft | 442 kts | 326° |
| 2026-04-28 10:05 | -4.36593 | 105.24842 | 29743 ft | 439 kts | 326° |
| 2026-04-28 10:05 | -4.34106 | 105.23077 | 29210 ft | 436 kts | 326° |
| 2026-04-28 10:05 | -4.31641 | 105.21327 | 28699 ft | 433 kts | 326° |
| 2026-04-28 10:06 | -4.29191 | 105.19588 | 28198 ft | 430 kts | 326° |
| 2026-04-28 10:06 | -4.26757 | 105.17861 | 27712 ft | 427 kts | 326° |
| 2026-04-28 10:06 | -4.24339 | 105.16146 | 27256 ft | 424 kts | 326° |
| 2026-04-28 10:06 | -4.21941 | 105.14444 | 26797 ft | 421 kts | 325° |
| 2026-04-28 10:07 | -4.19556 | 105.12752 | 26359 ft | 418 kts | 325° |
| 2026-04-28 10:07 | -4.17193 | 105.11075 | 25939 ft | 415 kts | 325° |
| 2026-04-28 10:07 | -4.14842 | 105.09407 | 25521 ft | 412 kts | 325° |
| 2026-04-28 10:07 | -4.12510 | 105.07753 | 25114 ft | 410 kts | 325° |
| 2026-04-28 10:08 | -4.10089 | 105.06271 | 24697 ft | 407 kts | 335° |
| 2026-04-28 10:08 | -4.07565 | 105.05015 | 24321 ft | 404 kts | 333° |
| 2026-04-28 10:08 | -4.05088 | 105.03708 | 23920 ft | 402 kts | 332° |
| 2026-04-28 10:08 | -4.02634 | 105.02387 | 23547 ft | 399 kts | 332° |
| 2026-04-28 10:09 | -4.00194 | 105.01070 | 23144 ft | 397 kts | 332° |
| 2026-04-28 10:09 | -3.97767 | 104.99764 | 22713 ft | 394 kts | 332° |
| 2026-04-28 10:09 | -3.95355 | 104.98474 | 22286 ft | 392 kts | 332° |
| 2026-04-28 10:09 | -3.92955 | 104.97196 | 21865 ft | 390 kts | 332° |
| 2026-04-28 10:10 | -3.90569 | 104.95928 | 21449 ft | 387 kts | 333° |
| 2026-04-28 10:10 | -3.88193 | 104.94668 | 21037 ft | 385 kts | 333° |
| 2026-04-28 10:10 | -3.85835 | 104.93419 | 20632 ft | 382 kts | 333° |
| 2026-04-28 10:10 | -3.83490 | 104.92178 | 20236 ft | 380 kts | 333° |
| 2026-04-28 10:11 | -3.81158 | 104.90943 | 19843 ft | 378 kts | 333° |
| 2026-04-28 10:11 | -3.78843 | 104.89718 | 19453 ft | 376 kts | 333° |
| 2026-04-28 10:11 | -3.76541 | 104.88499 | 19071 ft | 373 kts | 333° |
| 2026-04-28 10:11 | -3.74252 | 104.87288 | 18688 ft | 371 kts | 333° |
| 2026-04-28 10:12 | -3.72001 | 104.86097 | 18320 ft | 369 kts | 333° |
| 2026-04-28 10:12 | -3.69736 | 104.84898 | 17941 ft | 367 kts | 333° |
| 2026-04-28 10:12 | -3.67456 | 104.83691 | 17522 ft | 365 kts | 333° |
| 2026-04-28 10:12 | -3.65218 | 104.82507 | 17125 ft | 362 kts | 333° |
| 2026-04-28 10:13 | -3.63000 | 104.81334 | 16730 ft | 360 kts | 333° |
| 2026-04-28 10:13 | -3.60794 | 104.80167 | 16338 ft | 357 kts | 333° |
| 2026-04-28 10:13 | -3.58608 | 104.79010 | 15976 ft | 354 kts | 333° |
| 2026-04-28 10:13 | -3.56465 | 104.77876 | 15623 ft | 351 kts | 333° |
| 2026-04-28 10:14 | -3.54288 | 104.76725 | 15264 ft | 348 kts | 333° |
| 2026-04-28 10:14 | -3.52154 | 104.75596 | 14917 ft | 346 kts | 333° |
| 2026-04-28 10:14 | -3.50060 | 104.74488 | 14574 ft | 343 kts | 333° |
| 2026-04-28 10:14 | -3.47929 | 104.73361 | 14216 ft | 341 kts | 333° |
| 2026-04-28 10:15 | -3.45866 | 104.72270 | 13886 ft | 339 kts | 333° |
| 2026-04-28 10:15 | -3.43790 | 104.71172 | 13555 ft | 337 kts | 333° |
| 2026-04-28 10:15 | -3.41726 | 104.70080 | 13177 ft | 334 kts | 333° |
| 2026-04-28 10:15 | -3.39647 | 104.68981 | 12799 ft | 332 kts | 333° |
| 2026-04-28 10:16 | -3.37636 | 104.67917 | 12434 ft | 331 kts | 333° |
| 2026-04-28 10:16 | -3.35608 | 104.66845 | 12063 ft | 329 kts | 333° |
| 2026-04-28 10:16 | -3.33589 | 104.65778 | 11709 ft | 327 kts | 333° |
| 2026-04-28 10:16 | -3.31582 | 104.64716 | 11344 ft | 325 kts | 333° |
| 2026-04-28 10:17 | -3.29585 | 104.63661 | 10995 ft | 324 kts | 333° |
| 2026-04-28 10:17 | -3.27598 | 104.62610 | 10643 ft | 322 kts | 333° |
| 2026-04-28 10:17 | -3.25618 | 104.61563 | 10297 ft | 321 kts | 333° |
| 2026-04-28 10:17 | -3.23648 | 104.60522 | 9955 ft | 319 kts | 333° |
| 2026-04-28 10:18 | -3.21689 | 104.59486 | 9665 ft | 318 kts | 333° |
| 2026-04-28 10:18 | -3.19758 | 104.58465 | 9306 ft | 309 kts | 333° |
| 2026-04-28 10:18 | -3.17883 | 104.57474 | 8978 ft | 300 kts | 333° |
| 2026-04-28 10:18 | -3.16066 | 104.56513 | 8646 ft | 292 kts | 333° |
| 2026-04-28 10:19 | -3.14295 | 104.55577 | 8316 ft | 284 kts | 333° |
| 2026-04-28 10:19 | -3.12564 | 104.54662 | 8001 ft | 280 kts | 333° |
| 2026-04-28 10:19 | -3.10839 | 104.53751 | 7701 ft | 281 kts | 333° |
| 2026-04-28 10:19 | -3.09113 | 104.52839 | 7393 ft | 281 kts | 333° |
| 2026-04-28 10:20 | -3.07388 | 104.51927 | 7085 ft | 280 kts | 333° |
| 2026-04-28 10:20 | -3.05665 | 104.51017 | 6791 ft | 278 kts | 333° |
| 2026-04-28 10:20 | -3.03960 | 104.50116 | 6493 ft | 277 kts | 333° |
| 2026-04-28 10:20 | -3.02255 | 104.49215 | 6200 ft | 278 kts | 333° |
| 2026-04-28 10:21 | -3.00547 | 104.48312 | 5957 ft | 275 kts | 333° |
| 2026-04-28 10:21 | -2.98886 | 104.47434 | 5909 ft | 266 kts | 333° |
| 2026-04-28 10:21 | -2.97259 | 104.46574 | 5854 ft | 264 kts | 333° |
| 2026-04-28 10:21 | -2.95627 | 104.45712 | 5694 ft | 270 kts | 333° |
| 2026-04-28 10:22 | -2.93928 | 104.44816 | 5306 ft | 280 kts | 333° |
| 2026-04-28 10:22 | -2.92215 | 104.43911 | 4915 ft | 276 kts | 333° |
| 2026-04-28 10:22 | -2.90515 | 104.43055 | 4553 ft | 270 kts | 341° |
| 2026-04-28 10:22 | -2.88666 | 104.42838 | 3924 ft | 272 kts | 9° |
| 2026-04-28 10:23 | -2.86866 | 104.43372 | 3472 ft | 264 kts | 22° |
| 2026-04-28 10:23 | -2.85220 | 104.44015 | 3303 ft | 244 kts | 22° |
| 2026-04-28 10:23 | -2.83693 | 104.44604 | 3153 ft | 227 kts | 21° |
| 2026-04-28 10:23 | -2.82297 | 104.45177 | 3072 ft | 207 kts | 32° |
| 2026-04-28 10:24 | -2.81322 | 104.46152 | 3061 ft | 196 kts | 60° |
| 2026-04-28 10:24 | -2.81068 | 104.47462 | 3048 ft | 198 kts | 101° |
| 2026-04-28 10:24 | -2.81385 | 104.48815 | 3086 ft | 202 kts | 104° |
| 2026-04-28 10:24 | -2.81751 | 104.50194 | 2849 ft | 207 kts | 105° |
| 2026-04-28 10:25 | -2.82171 | 104.51545 | 2621 ft | 199 kts | 109° |
| 2026-04-28 10:25 | -2.82655 | 104.52809 | 2388 ft | 190 kts | 112° |
| 2026-04-28 10:25 | -2.83137 | 104.53981 | 2295 ft | 179 kts | 112° |
| 2026-04-28 10:25 | -2.83615 | 104.55126 | 2227 ft | 176 kts | 112° |
| 2026-04-28 10:26 | -2.84071 | 104.56218 | 2142 ft | 170 kts | 112° |
| 2026-04-28 10:26 | -2.84524 | 104.57300 | 2030 ft | 168 kts | 112° |
| 2026-04-28 10:26 | -2.84972 | 104.58373 | 1998 ft | 167 kts | 112° |
| 2026-04-28 10:26 | -2.85421 | 104.59448 | 1885 ft | 168 kts | 111° |
| 2026-04-28 10:27 | -2.85858 | 104.60494 | 1674 ft | 159 kts | 111° |
| 2026-04-28 10:27 | -2.86276 | 104.61494 | 1485 ft | 155 kts | 111° |
| 2026-04-28 10:27 | -2.86684 | 104.62473 | 1297 ft | 152 kts | 111° |
| 2026-04-28 10:27 | -2.87094 | 104.63454 | 1095 ft | 152 kts | 111° |
| 2026-04-28 10:28 | -2.87501 | 104.64431 | 905 ft | 153 kts | 111° |
| 2026-04-28 10:28 | -2.87912 | 104.65413 | 732 ft | 154 kts | 112° |
| 2026-04-28 10:28 | -2.88326 | 104.66403 | 540 ft | 155 kts | 112° |
| 2026-04-28 10:29 | -2.89181 | 104.68446 | 107 ft | 161 kts | 113° |
| 2026-04-28 10:29 | -2.89594 | 104.69422 | 13 ft | 135 kts | 111° |
| 2026-04-28 10:29 | -2.89869 | 104.70084 | 20 ft | 71 kts | 113° |
| 2026-04-28 10:29 | -2.89990 | 104.70369 | 21 ft | 29 kts | 112° |
| 2026-04-28 10:30 | -2.89951 | 104.70491 | 22 ft | 13 kts | 21° |
| 2026-04-28 10:30 | -2.89944 | 104.70494 | 22 ft | 0 kts | 23° |
| 2026-04-28 10:31 | -2.89942 | 104.70495 | 22 ft | 2 kts | 23° |
| 2026-04-28 10:31 | -2.89905 | 104.70510 | 22 ft | 10 kts | 22° |
| 2026-04-28 10:31 | -2.89820 | 104.70546 | 27 ft | 16 kts | 23° |
| 2026-04-28 10:31 | -2.89750 | 104.70536 | 26 ft | 9 kts | 291° |
| 2026-04-28 10:32 | -2.89728 | 104.70477 | 28 ft | 9 kts | 291° |
| 2026-04-28 10:32 | -2.89712 | 104.70440 | 28 ft | 9 kts | 293° |
| 2026-04-28 10:32 | -2.89676 | 104.70400 | 25 ft | 8 kts | 359° |
| 2026-04-28 10:32 | -2.89633 | 104.70428 | 26 ft | 7 kts | 28° |
| 2026-04-28 10:33 | -2.89611 | 104.70438 | 25 ft | 0 kts | 23° |